CheckWX is a tool to help pilots better visualize weather data.  It is not intended as a substitute for an official pre-flight weather briefing.

12:43:07 UTC

EGLC METAR
London City Airport
London, United Kingdom
Current

23 mins ago

EGLC 201220Z AUTO 31009KT 270V340 9999 BKN041 19/09 Q1012
Observed
May-20 @ 12:20 UTC
Wind
  • 310° at 9 KTS
Visibility
10,000+ meters
Flight Rules
VFR
Cloud Levels
  • Broken at 4,100' AGL
Temperature
19°C / 66°F
Dewpoint
C / 48°F
Humidity
52%
Altimeter
29.88" Hg
Pressure
1011.92 hPa
Previous

53 mins ago

EGLC 201150Z AUTO 34006KT 280V050 9999 SCT037 19/09 Q1012
Observed
May-20 @ 11:50 UTC
Wind
  • 340° at 6 KTS
Visibility
10,000+ meters
Flight Rules
VFR
Cloud Levels
  • Scattered at 3,700' AGL
Temperature
19°C / 66°F
Dewpoint
C / 48°F
Humidity
52%
Altimeter
29.88" Hg
Pressure
1011.92 hPa
Previous

1 hour ago

EGLC 201120Z AUTO 33006KT 290V030 9999 FEW036 SCT042 18/09 Q1012
Observed
May-20 @ 11:20 UTC
Wind
  • 330° at 6 KTS
Visibility
10,000+ meters
Flight Rules
VFR
Cloud Levels
  • Few at 3,600' AGL
  • Scattered at 4,200' AGL
Temperature
18°C / 64°F
Dewpoint
C / 48°F
Humidity
56%
Altimeter
29.88" Hg
Pressure
1011.92 hPa